Date,TemperatureHighF,TemperatureAvgF,TemperatureLowF,DewpointHighF,DewpointAvgF,DewpointLowF,HumidityHigh,HumidityAvg,HumidityLow,PressureMaxIn,PressureMinIn,WindSpeedMaxMPH,WindSpeedAvgMPH,GustSpeedMaxMPH,PrecipitationSumIn
2013-1-1,38,31,15,29,21,10,85,65,47,29.95,29.76,16,1,16,0.02
2013-1-2,32,19,3,17,10,-1,87,70,46,30.13,29.93,13,1,13,0.02
2013-1-3,22,13,1,13,3,-7,85,65,49,30.19,29.99,8,0,8,0.00
2013-1-4,38,30,18,25,21,14,89,70,51,29.98,29.83,19,2,19,0.06
2013-1-5,42,30,21,26,22,18,91,73,48,30.21,29.90,21,1,21,0.16
2013-1-6,43,31,23,30,26,20,95,81,56,30.15,29.89,10,1,10,0.14
2013-1-7,38,29,18,29,23,16,95,81,55,30.34,29.97,14,1,14,0.09
2013-1-8,45,25,15,30,-1,-100,94,61,51,30.34,30.24,11,-176,11,0.09
2013-1-9,42,23,18,34,-15,-100,96,53,65,30.33,30.03,9,-296,9,0.01
2013-1-10,46,36,26,32,21,-100,97,62,41,30.50,30.12,20,-31,20,0.01
2013-1-11,38,28,22,35,15,-100,99,81,62,30.50,30.09,6,-95,6,0.26
2013-1-12,44,38,34,44,38,34,100,100,98,30.11,30.06,5,0,5,0.01
2013-1-13,45,41,36,45,41,36,100,100,100,30.08,29.93,3,0,3,0.01
2013-1-14,50,44,35,50,39,25,100,85,64,30.27,29.77,19,1,19,0.05
2013-1-15,38,34,28,27,25,22,90,69,57,30.31,30.18,8,0,8,0.05
2013-1-16,32,31,28,31,29,23,97,93,67,30.19,29.81,2,0,2,0.00
2013-1-17,41,32,26,35,26,10,98,80,52,30.08,29.83,11,1,11,0.14
2013-1-18,27,23,18,12,7,-1,65,50,34,30.40,30.01,16,2,16,0.14
2013-1-19,46,34,24,27,21,10,86,60,42,30.30,29.81,14,2,14,0.08
2013-1-20,51,37,27,32,22,7,93,57,25,29.98,29.58,18,2,18,0.04
2013-1-21,29,24,17,22,12,6,91,62,42,30.03,29.75,12,0,12,0.04
2013-1-22,22,17,10,17,0,-10,93,49,27,30.11,29.75,21,2,21,0.00
2013-1-23,18,11,3,-1,-5,-10,78,50,29,30.17,30.09,17,1,17,0.00
2013-1-24,22,10,0,2,-4,-7,81,57,29,30.30,30.11,22,2,22,0.00
2013-1-25,21,14,4,14,3,-1,87,66,39,30.35,30.01,5,0,5,0.00
2013-1-26,25,16,5,12,6,1,88,67,40,30.30,30.00,18,1,18,0.00
2013-1-27,33,17,2,13,6,-2,86,66,27,30.47,30.30,11,0,11,0.00
2013-1-28,32,23,14,31,18,8,96,84,71,30.44,29.99,7,0,7,0.00
2013-3-1,45,39,33,35,30,25,99,70,56,29.72,29.62,14,1,14,0.08
2013-3-2,39,34,28,26,25,23,81,70,58,29.72,29.64,17,1,17,0.08
2013-3-3,36,30,26,27,21,16,83,70,53,29.70,29.63,17,1,17,0.01
2013-3-4,42,32,27,24,20,18,77,62,45,29.84,29.68,18,2,18,0.01
2013-3-5,45,35,24,27,25,21,91,67,47,29.98,29.84,14,2,14,0.00
2013-3-6,43,38,33,35,29,26,83,70,56,29.99,29.89,22,4,22,0.00
2013-3-7,38,34,31,32,29,25,96,82,64,30.06,29.95,17,3,17,0.03
2013-3-8,39,33,29,32,29,25,98,86,64,30.18,29.97,20,3,20,0.13
2013-3-9,50,37,28,31,25,20,90,63,30,30.27,30.17,17,2,17,0.20
2013-3-10,54,38,21,34,28,20,94,69,38,30.33,30.19,7,2,12,0.03
2013-3-11,54,44,33,46,38,31,93,79,57,30.24,30.00,12,2,12,0.03
2013-3-12,55,51,40,54,49,37,99,92,82,30.00,29.59,21,2,21,0.27
2013-3-13,48,40,30,37,30,20,98,71,34,29.82,29.71,12,1,12,0.09
2013-3-14,35,31,26,30,14,7,84,50,37,29.87,29.78,22,4,22,0.21
2013-3-15,40,33,22,31,20,9,77,59,40,29.89,29.65,14,2,14,0.08
2013-3-16,38,31,27,28,8,-100,90,56,41,29.86,29.70,10,-53,10,0.01
2013-3-17,39,30,22,27,15,6,94,58,26,30.27,29.86,17,2,17,0.01
2013-3-18,36,28,17,27,13,3,95,59,28,30.39,30.03,14,1,14,0.00
2013-3-19,37,33,28,36,31,27,98,94,87,30.03,29.64,16,0,16,0.30
2013-3-20,41,32,25,31,21,15,98,65,36,29.78,29.72,20,2,20,0.14
2013-3-21,39,30,22,23,17,9,93,62,33,29.77,29.57,11,1,11,0.04
2013-3-22,38,30,19,26,20,14,91,66,46,29.78,29.65,13,2,13,0.04
2013-3-23,45,37,30,25,21,16,73,53,32,29.85,29.73,26,3,26,0.00
2013-3-24,46,34,22,28,23,19,92,67,41,29.87,29.67,17,2,17,0.00
2013-3-25,47,38,30,30,26,22,86,62,39,29.69,29.41,14,2,14,0.00
2013-3-26,49,39,29,34,29,24,88,69,42,29.79,29.53,13,2,13,0.00
2013-3-27,52,37,21,30,24,20,93,64,30,29.89,29.79,14,1,14,0.00
2013-3-28,48,40,34,36,32,27,87,72,55,30.04,29.88,13,2,13,0.00
2013-3-29,54,41,27,35,29,25,96,67,38,30.09,29.98,12,1,12,0.00
2013-3-30,59,42,27,32,26,18,95,60,22,30.10,29.98,16,1,16,0.00
2013-3-31,57,41,25,42,30,22,97,68,28,30.07,29.63,19,2,19,0.14
2013-4-1,59,44,34,47,34,10,100,71,30,29.83,29.52,25,3,25,0.01
2013-4-2,42,34,26,21,13,6,81,45,24,29.99,29.83,22,3,22,0.01
2013-4-3,46,36,28,18,14,9,65,41,25,30.24,29.99,21,3,21,0.00
2013-4-4,55,40,22,29,19,13,85,47,21,30.32,29.99,12,2,12,0.00
2013-4-5,61,47,35,30,23,17,76,43,21,29.99,29.66,22,3,22,0.00
2013-4-6,51,39,30,26,14,4,80,41,16,30.23,29.93,25,2,25,0.00
2013-4-7,57,46,29,43,31,19,81,58,27,30.22,29.90,22,4,22,0.00
2013-4-8,69,53,36,46,40,35,98,65,32,30.03,29.90,12,1,12,0.00
2013-4-9,75,64,49,52,46,40,89,56,29,29.90,29.81,17,2,17,0.00
2013-4-10,66,55,48,55,50,44,99,86,64,29.91,29.73,17,0,17,0.26
2013-4-11,54,46,36,54,38,28,99,74,50,30.05,29.76,14,3,14,0.01
2013-4-12,42,40,36,39,36,32,94,86,71,30.05,29.71,17,0,17,0.39
2013-4-13,56,46,37,41,37,34,97,74,45,29.89,29.74,10,0,10,0.41
2013-4-14,52,44,35,38,31,25,92,65,37,30.17,29.87,17,2,17,0.00
2013-4-15,62,47,31,36,32,28,91,60,33,30.33,30.17,13,2,13,0.00
2013-4-16,66,54,41,55,45,30,88,72,55,30.30,30.02,17,3,17,0.01
2013-4-17,66,55,43,55,40,31,98,62,29,30.24,30.04,15,3,15,0.08
2013-4-18,62,50,35,49,38,33,97,69,37,30.30,30.04,17,2,17,0.00
2013-4-19,75,64,53,63,59,49,98,84,67,30.04,29.51,19,3,19,0.53
2013-4-20,61,50,40,61,35,19,98,63,29,30.25,29.59,18,3,18,0.03
2013-4-21,52,41,29,31,23,18,87,53,27,30.58,30.25,17,2,17,0.03
2013-4-22,59,45,31,35,28,20,91,58,25,30.64,30.43,18,2,18,0.00
2013-4-23,53,42,30,41,36,28,94,79,63,30.47,30.08,8,1,8,0.00
2013-4-24,75,53,31,51,43,30,98,72,39,30.08,29.69,14,2,14,0.00
2013-4-25,64,54,41,53,34,24,86,50,23,30.19,29.72,18,2,18,0.00
2013-4-26,64,49,32,39,33,28,95,59,29,30.37,30.19,18,2,18,0.00
2013-4-27,70,52,31,42,31,15,93,54,15,30.39,30.20,12,1,12,0.00
2013-4-28,74,56,36,42,36,28,95,54,26,30.25,30.09,14,2,14,0.00
2013-4-29,58,56,51,47,43,30,82,64,38,30.17,30.13,12,1,12,0.00
2013-4-30,72,59,49,47,38,27,87,52,20,30.26,30.15,12,1,12,0.00
2013-5-1,75,58,36,44,36,25,91,51,18,30.40,30.26,12,1,12,0.00
2013-5-2,81,62,40,50,43,38,96,56,25,30.40,30.19,12,1,12,0.00
2013-5-3,72,60,47,46,37,29,84,45,24,30.41,30.24,15,1,15,0.00
2013-5-4,77,58,39,47,42,35,96,62,24,30.30,30.10,13,1,13,0.00
2013-5-5,74,55,36,45,39,29,97,61,20,30.25,30.08,11,1,11,0.00
2013-5-6,74,56,36,54,45,35,97,70,34,30.21,30.03,10,1,10,0.00
2013-5-7,79,63,44,57,51,42,98,70,30,30.09,29.98,10,1,10,0.00
2013-5-8,67,61,55,65,59,54,99,93,83,30.06,29.91,15,0,15,0.30
2013-5-9,65,54,48,60,49,-100,100,91,74,29.95,29.82,2,-25,2,0.27
2013-5-10,79,62,47,62,55,46,100,81,41,29.93,29.79,9,0,9,0.02
2013-5-11,70,63,59,66,61,-100,100,95,80,29.80,29.61,9,-14,9,0.30
2013-5-12,66,57,44,62,46,25,100,71,26,29.83,29.58,19,1,19,0.01
2013-5-13,54,46,37,37,33,27,91,62,40,30.04,29.83,11,1,11,0.01
2013-5-14,62,46,30,37,31,23,97,63,24,30.08,29.94,11,1,11,0.00
2013-5-15,68,51,32,56,44,31,97,80,52,30.01,29.58,14,1,14,0.07
2013-5-16,84,64,45,56,46,37,100,62,19,29.77,29.62,16,1,16,0.07
2013-5-17,72,59,47,49,44,40,91,63,34,30.14,29.77,16,1,16,0.00
2013-5-18,70,56,41,52,47,40,98,75,41,30.23,30.14,12,0,12,0.00
2013-5-19,59,56,51,57,54,49,99,96,91,30.26,30.11,6,0,6,0.11
2013-5-20,82,67,56,68,62,56,100,84,54,30.11,29.85,6,0,6,0.11
2013-5-21,90,75,58,73,67,58,100,79,48,29.90,29.71,9,0,9,0.00
2013-5-22,80,71,63,74,67,61,95,86,72,29.83,29.72,9,0,9,0.02
2013-5-23,73,68,64,71,67,63,100,97,88,29.79,29.67,7,0,7,0.78
2013-5-24,66,55,43,66,54,41,100,97,87,29.91,29.59,20,0,20,0.25
2013-5-25,48,46,43,44,41,39,96,86,70,29.90,29.83,24,2,24,0.16
2013-5-26,62,52,43,44,40,36,92,66,43,30.11,29.83,21,2,21,0.16
2013-5-27,77,56,35,49,41,33,100,66,25,30.17,30.03,12,0,12,0.00
2013-5-28,70,55,42,58,50,41,100,87,49,30.16,30.07,6,0,6,0.10
2013-5-29,81,67,57,72,64,57,100,90,69,30.07,29.89,8,0,8,0.14
2013-5-30,92,74,60,75,68,60,100,84,43,30.04,29.95,6,0,6,0.14
2013-5-31,92,76,62,72,67,62,100,77,39,30.05,29.88,7,0,7,0.00
2013-6-1,92,76,60,73,68,59,100,79,43,29.92,29.79,8,0,8,0.00
2013-6-2,72,72,72,68,68,68,88,88,88,29.81,29.81,0,0,0,0.00
2013-6-9,68,64,60,64,62,59,97,93,88,30.10,30.07,0,0,0,0.00
2013-6-10,70,62,56,67,61,56,100,98,81,30.11,29.78,7,0,7,1.14
2013-6-11,76,66,60,70,64,57,100,91,72,29.78,29.51,12,0,12,0.11
2013-6-12,74,66,56,59,55,51,96,70,51,29.78,29.59,16,1,16,0.11
2013-6-13,58,55,51,58,55,51,100,99,96,29.77,29.53,10,0,10,1.67
2013-6-14,75,60,52,61,56,52,100,89,51,29.81,29.56,13,0,13,0.03
2013-6-15,81,64,49,60,53,46,100,75,30,29.93,29.81,11,0,11,0.03
2013-6-16,74,63,49,65,58,49,100,85,64,29.92,29.66,12,0,12,0.00
2013-6-17,86,68,55,68,61,55,100,81,36,29.85,29.73,19,0,19,0.00
2013-6-18,77,64,58,69,61,57,100,92,72,29.87,29.77,10,0,10,0.20
2013-6-19,75,62,53,57,52,45,99,73,40,30.11,29.85,12,1,12,0.20
2013-6-20,80,64,46,61,54,46,100,74,42,30.20,30.10,8,0,8,0.00
2013-6-21,80,69,56,70,62,56,97,78,59,30.20,30.13,5,0,5,0.00
2013-6-22,84,71,57,69,62,56,99,75,50,30.17,30.02,7,0,7,0.00
2013-6-23,90,77,64,72,67,60,90,73,41,30.09,29.94,11,0,11,0.00
2013-6-24,89,76,67,82,71,67,100,88,58,29.98,29.85,42,0,42,0.54
2013-6-25,88,74,63,77,71,63,100,91,59,29.92,29.70,10,0,10,0.42
2013-6-26,78,73,68,74,71,67,100,93,80,29.75,29.68,6,0,6,0.42
2013-6-27,84,73,65,74,70,65,100,89,61,29.75,29.46,11,0,11,0.51
2013-6-28,83,75,68,73,70,68,100,88,66,29.46,29.37,13,0,13,0.98
2013-6-29,84,73,64,71,68,64,100,86,53,29.62,29.41,7,0,7,0.98
2013-6-30,82,70,64,75,69,64,100,96,77,29.84,29.61,9,0,9,2.31
2013-7-1,75,72,68,75,71,68,100,99,97,29.96,29.83,3,0,3,0.64
2013-7-2,82,76,72,76,74,71,100,92,77,30.08,29.96,6,0,6,0.68
2013-7-3,85,77,72,76,73,71,100,90,69,30.15,30.06,8,0,8,0.00
2013-7-4,88,79,70,77,74,70,100,86,63,30.16,30.04,10,0,10,0.00
2013-7-5,90,80,72,77,74,72,99,83,60,30.12,29.98,6,0,6,0.00
2013-7-6,91,81,74,78,74,72,98,82,55,30.04,29.93,6,0,6,0.00
2013-7-7,92,79,70,79,74,70,100,86,56,29.97,29.83,7,0,7,0.00
2013-7-8,88,76,68,77,70,67,100,84,61,29.96,29.86,8,0,8,0.75
2013-7-9,87,74,66,77,71,66,100,90,63,30.01,29.91,4,0,4,0.01
2013-7-10,84,76,72,79,74,71,100,94,83,29.93,29.70,6,0,6,0.06
2013-7-11,82,73,67,74,65,-100,100,86,70,29.87,29.69,6,-26,6,0.06
2013-7-12,80,71,63,72,63,-100,99,81,64,30.07,29.87,8,-11,8,0.00
2013-7-13,78,71,65,74,69,63,100,94,80,30.22,30.07,5,0,5,0.10
2013-7-14,89,78,70,79,74,70,100,89,64,30.25,30.13,6,0,6,0.10
2013-7-15,91,80,71,78,74,71,100,86,57,30.17,30.06,8,0,8,0.00
2013-7-16,92,78,67,76,71,66,100,81,43,30.15,30.05,11,0,11,0.00
2013-7-17,94,80,69,78,73,68,100,83,49,30.14,29.95,5,0,5,0.00
2013-7-18,96,82,71,81,75,71,100,81,47,29.98,29.86,11,0,11,0.02
2013-7-20,90,82,71,78,74,70,96,77,54,29.77,29.62,8,0,8,0.00
2013-7-21,87,75,66,72,68,60,99,79,41,29.89,29.77,6,0,6,0.00
2013-7-22,83,74,66,74,70,65,100,89,67,29.91,29.73,8,0,8,0.09
2013-7-23,85,75,72,77,74,72,100,96,68,29.73,29.48,10,0,12,0.88
2013-7-24,76,71,60,73,66,53,100,86,66,29.91,29.54,10,0,10,0.01
2013-7-25,71,63,57,64,57,51,94,80,71,30.01,29.91,9,0,9,0.01
2013-7-26,80,69,62,67,62,57,98,80,56,29.98,29.91,11,0,11,0.00
2013-7-27,82,70,57,68,63,57,100,82,53,29.98,29.87,6,0,6,0.00
2013-7-28,75,68,64,74,67,63,100,97,82,29.93,29.85,4,0,4,0.29
2013-7-29,81,71,62,71,66,60,100,86,51,30.03,29.89,7,0,9,0.31
2013-7-30,80,66,55,67,61,55,100,85,48,30.10,30.02,10,0,10,0.00
2013-7-31,80,68,56,68,62,56,100,84,52,30.10,29.96,5,0,5,0.00
2013-8-1,74,66,60,68,64,60,100,97,74,29.97,29.77,6,0,6,0.18
2013-8-2,82,70,64,68,66,62,100,88,58,29.82,29.73,7,0,7,0.01
2013-8-3,78,67,60,70,64,59,100,90,67,29.82,29.74,7,0,7,0.01
2013-8-4,78,63,54,66,59,54,100,87,51,29.90,29.77,13,0,13,0.09
2013-8-5,77,62,50,59,53,48,100,76,36,30.00,29.90,12,0,16,0.01
2013-8-6,79,64,49,64,56,49,100,79,44,30.05,29.98,6,0,6,0.01
2013-8-7,74,67,58,67,62,57,100,85,71,30.08,29.98,7,0,7,0.00
2013-8-8,81,74,69,74,70,67,98,89,73,29.98,29.91,6,0,6,0.00
2013-8-9,78,74,71,78,73,71,100,99,91,29.92,29.71,5,0,5,3.49
2013-8-10,83,71,59,71,65,57,100,83,43,29.99,29.78,13,0,13,3.49
2013-8-11,78,64,52,67,59,52,100,83,52,30.07,29.94,6,0,6,0.00
2013-8-12,81,68,59,68,63,58,100,85,52,29.97,29.84,5,0,5,0.00
2013-8-13,74,67,63,72,67,63,100,98,87,29.85,29.60,12,0,12,1.57
2013-8-14,74,63,54,65,57,52,100,83,51,29.96,29.68,16,1,16,0.01
2013-8-15,76,60,48,60,55,48,100,85,49,30.08,29.96,6,0,6,0.01
2013-8-16,79,63,52,63,57,52,100,83,46,30.13,30.06,5,0,5,0.00
2013-8-17,79,65,53,67,59,53,100,85,51,30.23,30.13,6,0,6,0.00
2013-8-18,74,65,57,69,63,57,100,94,74,30.21,30.05,3,0,3,0.00
2013-8-19,76,67,58,71,64,58,100,91,71,30.05,29.94,2,0,2,0.00
2013-8-20,82,69,56,72,64,56,100,87,54,30.06,29.97,5,0,5,0.00
2013-8-21,84,70,58,72,65,58,100,87,58,30.12,29.96,6,0,6,0.00
2013-8-22,81,71,62,73,69,62,100,92,73,29.99,29.77,6,0,6,0.02
2013-8-23,78,69,57,70,62,56,100,81,52,30.08,29.80,11,0,11,0.02
2013-8-24,78,63,51,62,56,51,100,81,45,30.29,30.08,8,0,8,0.00
2013-8-25,80,64,49,64,58,49,100,83,52,30.35,30.13,6,0,6,0.00
2013-8-26,73,67,62,72,66,60,100,95,82,30.14,29.83,5,0,5,0.42
2013-8-27,82,72,67,72,70,67,100,92,66,29.84,29.75,10,0,10,0.81
2013-8-28,83,70,63,75,68,63,100,93,69,29.83,29.76,10,0,10,0.00
2013-8-29,78,70,64,72,68,64,100,92,73,29.96,29.83,10,0,10,0.00
2013-8-30,82,73,66,74,69,65,99,89,65,29.94,29.76,3,0,3,0.00
2013-8-31,81,74,69,76,72,69,100,93,83,29.76,29.69,6,0,6,0.01
2013-9-1,80,74,69,76,73,69,100,96,86,29.78,29.72,3,0,3,0.01
2013-9-2,81,72,65,75,71,65,100,98,77,29.74,29.63,7,0,7,1.43
2013-9-3,75,66,60,70,65,60,100,96,77,29.81,29.66,3,0,3,0.01
2013-9-4,78,65,54,65,59,54,100,85,55,29.92,29.81,7,0,7,0.01
2013-9-5,70,61,50,63,55,46,100,82,43,30.11,29.84,11,0,11,0.01
2013-9-6,66,54,43,53,47,39,100,82,42,30.22,30.07,7,0,7,0.00
2013-9-7,74,58,44,64,54,44,100,88,58,30.07,29.81,5,0,5,0.00
2013-9-8,73,63,50,66,58,48,100,85,45,30.05,29.75,13,0,13,0.03
2013-9-9,68,56,42,60,50,42,100,83,57,30.20,30.04,7,0,7,0.00
2013-9-10,78,69,62,75,68,57,100,95,82,30.09,29.95,5,0,5,0.15
2013-9-11,89,76,67,81,74,67,100,92,71,30.02,29.87,12,0,12,0.01
2013-9-12,80,72,66,78,71,66,100,97,80,29.90,29.59,8,0,8,0.61
2013-9-13,71,65,54,69,63,52,100,95,74,29.79,29.56,11,0,11,0.19
2013-9-14,63,55,48,56,51,47,100,87,65,30.06,29.79,10,0,10,0.19
2013-9-15,66,53,41,57,49,41,100,88,54,30.17,30.01,3,0,3,0.00
2013-9-16,66,57,49,58,54,43,100,89,68,30.24,29.98,11,0,11,0.01
2013-9-17,62,50,40,50,44,39,100,82,54,30.41,30.24,10,0,10,0.01
2013-9-18,68,52,39,55,47,38,100,86,50,30.31,30.11,3,0,3,0.00
2013-9-19,72,55,41,59,50,40,100,86,46,30.13,30.00,3,0,3,0.00
2013-9-20,76,59,44,63,54,43,100,87,54,30.04,29.91,5,0,5,0.00
2013-9-21,73,63,51,67,60,51,100,91,75,29.94,29.56,10,0,10,0.24
2013-9-22,67,60,52,67,54,44,100,83,58,29.86,29.56,10,0,12,0.62
2013-9-23,61,52,43,49,44,39,98,77,55,30.01,29.85,13,1,13,0.00
2013-9-24,68,50,37,54,45,37,100,84,50,30.01,29.82,10,0,10,0.00
2013-9-25,69,52,38,58,48,38,100,88,56,29.93,29.82,6,0,6,0.00
2013-9-26,66,55,47,54,51,47,100,88,60,30.07,29.90,9,0,9,0.00
2013-9-27,64,55,45,56,51,45,100,89,69,30.22,30.07,6,0,6,0.00
2013-9-28,71,56,43,59,52,43,100,87,57,30.30,30.18,8,0,8,0.00
2013-9-29,71,55,45,60,52,44,100,90,58,30.19,30.01,2,0,3,0.00
2013-9-30,71,55,43,59,51,43,100,87,54,30.05,29.91,2,0,5,0.00
2013-10-1,74,57,43,65,54,42,100,90,61,29.98,29.83,5,0,5,0.00
2013-10-2,79,61,47,68,58,47,100,90,60,29.95,29.83,7,0,7,0.00
2013-10-3,73,59,46,61,54,46,100,87,48,30.08,29.95,4,0,4,0.00
2013-10-4,76,63,52,68,60,52,100,92,74,30.01,29.91,5,0,5,0.08
2013-10-5,69,63,60,66,62,60,100,98,88,30.05,29.97,3,0,3,0.11
2013-10-6,62,60,59,62,60,59,100,98,94,30.05,29.98,11,0,11,1.24
2013-10-7,74,65,54,70,64,54,100,98,82,29.98,29.63,20,0,20,0.66
2013-10-8,64,53,44,54,47,43,100,84,50,30.31,29.90,13,1,13,0.01
2013-10-9,64,51,40,52,45,40,100,84,44,30.41,30.28,7,0,7,0.01
2013-10-10,58,50,41,51,46,41,100,90,69,30.29,30.09,5,0,5,0.00
2013-10-11,72,58,47,61,52,46,99,84,64,30.09,29.99,8,0,8,0.00
2013-10-12,73,56,41,57,51,41,100,85,52,30.27,30.07,12,1,12,0.00
2013-10-13,67,55,44,53,49,44,100,83,56,30.35,30.26,8,0,8,0.00
2013-10-14,67,53,40,54,48,40,100,86,56,30.32,30.17,6,0,6,0.00
2013-10-15,70,58,47,60,52,46,100,85,61,30.21,30.06,2,0,5,0.00
2013-10-16,62,54,46,58,51,45,99,90,74,30.07,29.84,4,0,4,0.00
2013-10-17,75,65,58,63,59,54,100,82,49,29.84,29.58,8,0,8,0.00
2013-10-18,67,59,44,63,49,41,100,72,38,29.91,29.56,12,1,12,0.03
2013-10-19,66,51,36,53,44,36,100,81,40,29.93,29.67,12,1,12,0.05
2013-10-20,61,51,40,52,42,36,100,77,40,29.99,29.67,13,1,13,0.05
2013-10-21,67,50,33,46,40,33,100,72,39,30.09,29.90,12,1,12,0.00
2013-10-22,61,49,39,51,45,38,100,85,65,29.90,29.68,6,0,6,0.00
2013-10-23,54,42,32,42,36,31,100,83,46,29.77,29.57,7,0,7,0.00
2013-10-24,54,42,30,40,32,27,100,71,37,29.91,29.68,14,1,14,0.00
2013-10-25,51,41,33,35,32,30,95,74,49,30.14,29.91,14,1,14,0.00
2013-10-26,55,42,27,37,30,26,100,68,37,30.14,29.81,18,2,18,0.00
2013-10-27,56,46,33,39,33,29,93,64,36,30.05,29.77,14,1,14,0.00
2013-10-28,60,42,27,39,33,26,100,73,40,30.29,30.05,17,1,17,0.00
2013-10-29,52,40,30,33,29,26,92,65,40,30.41,30.29,8,1,8,0.00
2013-10-30,56,42,30,47,37,28,97,83,64,30.31,30.12,7,0,7,0.00
2013-10-31,61,48,34,60,48,34,100,99,92,30.19,29.70,14,0,14,0.29
2013-11-1,71,62,46,64,56,45,99,82,46,29.70,29.40,19,2,19,0.02
2013-11-2,66,49,40,52,45,40,100,87,47,29.72,29.55,8,0,8,0.02
2013-11-3,44,39,30,43,30,18,100,72,52,30.43,29.72,17,3,17,0.00
2013-11-4,45,32,22,26,22,18,93,69,36,30.63,30.43,10,1,10,0.00
2013-11-5,53,40,27,40,33,24,94,76,54,30.64,30.42,11,1,11,0.00
2013-11-6,59,50,37,49,44,36,98,80,62,30.44,29.97,12,1,12,0.00
2013-11-7,58,50,34,58,48,33,100,92,79,29.97,29.69,13,1,13,0.06
2013-11-8,47,39,31,37,30,27,100,75,49,30.11,29.85,18,2,18,0.06
2013-11-9,47,40,34,33,31,28,90,69,49,30.21,29.92,8,1,8,0.00
2013-11-10,51,46,40,43,35,29,93,67,51,29.95,29.76,18,1,18,0.01
2013-11-11,51,46,37,36,31,28,84,56,44,30.11,29.87,13,2,13,0.01
2013-11-12,47,34,22,38,25,17,93,71,51,30.22,29.87,17,2,17,0.05
2013-11-13,38,27,16,21,17,11,95,68,35,30.33,30.17,13,1,13,0.05
2013-11-14,55,40,29,24,20,14,69,47,21,30.17,30.03,11,2,11,0.00
2013-11-15,60,40,24,30,24,17,90,59,19,30.16,30.06,11,1,11,0.00
2013-11-16,60,42,31,43,34,26,100,77,36,30.27,30.16,5,0,5,0.01
2013-11-17,60,48,33,59,47,31,100,96,88,30.22,29.70,11,0,11,0.05
2013-11-18,63,57,46,61,44,28,98,66,34,29.70,29.46,16,3,16,0.04
2013-11-19,47,40,29,32,26,21,77,57,47,30.32,29.69,20,3,20,0.04
2013-11-20,39,30,20,22,18,15,90,64,38,30.58,30.32,11,2,11,0.00
2013-11-21,47,32,16,33,24,14,94,75,47,30.60,30.32,5,0,5,0.00
2013-11-22,53,45,38,49,43,32,100,93,78,30.32,29.82,10,0,10,0.15
2013-11-23,52,42,34,47,31,23,84,65,51,29.98,29.83,17,2,17,0.15
2013-11-24,28,24,22,12,5,-3,62,45,26,30.27,30.12,25,4,25,0.00
2013-11-25,32,26,14,16,13,7,83,59,45,30.32,30.23,8,1,8,0.00
2013-11-26,37,33,31,37,25,12,100,75,44,30.26,29.81,11,1,11,0.53
2013-11-27,52,42,34,52,40,-100,100,96,66,29.81,29.31,16,1,16,0.82
2013-11-28,34,28,21,24,16,9,84,60,41,30.41,29.61,21,2,21,0.82
2013-11-29,34,26,17,21,19,15,92,78,54,30.70,30.41,11,0,11,0.01
2013-11-30,33,24,12,22,14,9,92,68,37,30.74,30.34,11,0,11,0.01
2013-12-1,43,34,27,33,29,22,93,80,62,30.34,29.96,5,0,5,0.00
2013-12-2,42,34,28,39,32,27,99,94,81,29.96,29.84,3,0,3,0.03
2013-12-3,39,30,24,37,29,24,100,97,91,29.97,29.85,2,0,2,0.03
2013-12-4,46,34,22,37,30,21,100,88,66,30.10,29.97,5,0,5,0.01
2013-12-5,54,46,39,54,46,36,100,98,89,30.09,29.88,3,0,6,0.18
2013-12-6,52,42,33,51,40,32,100,93,75,30.13,29.81,13,1,13,0.51
2013-12-7,38,32,25,34,28,18,99,86,60,30.47,30.08,12,0,12,0.08
2013-12-8,30,26,18,24,21,17,95,82,66,30.57,30.39,6,0,6,0.08
2013-12-9,33,30,27,33,30,24,100,98,86,30.40,29.90,5,0,5,0.00
2013-12-10,32,29,21,32,28,19,100,98,93,30.02,29.80,2,0,2,0.00
2013-12-11,29,23,18,23,19,16,94,84,66,30.23,30.02,12,0,12,0.00
2013-12-12,25,18,10,20,12,6,92,76,51,30.30,30.07,13,0,13,0.00
2013-12-13,33,24,15,20,13,8,80,62,51,30.22,30.01,17,3,17,0.00
2013-12-14,17,16,15,15,13,11,92,88,80,30.39,29.91,6,0,6,0.00
2013-12-15,32,25,18,29,24,15,96,93,87,29.91,29.51,10,0,10,0.00
2013-12-16,29,22,5,24,11,1,97,66,44,30.18,29.73,16,2,16,0.00
2013-12-17,19,11,-1,17,8,-5,92,88,81,30.20,29.92,3,0,3,0.00
2013-12-18,32,22,8,26,18,4,90,83,69,30.06,29.91,6,0,6,0.02
2013-12-19,43,32,23,29,24,20,90,74,49,30.08,29.93,10,1,10,0.12
2013-12-20,50,36,28,34,30,26,95,82,52,30.04,29.87,7,0,7,0.33
2013-12-21,58,42,33,45,38,31,99,84,59,29.91,29.79,11,1,11,0.20
2013-12-22,67,53,37,62,51,36,100,94,75,29.86,29.65,18,1,18,0.21
2013-12-23,57,45,36,55,44,30,100,97,80,30.10,29.84,10,0,10,0.48
2013-12-24,36,30,22,30,22,6,95,73,51,30.27,30.05,20,2,20,0.48
2013-12-25,23,17,14,11,6,4,78,62,49,30.48,30.27,14,2,14,0.00
2013-12-26,31,27,22,25,23,21,96,87,75,30.20,30.09,7,0,7,0.00
2013-12-27,36,26,14,25,20,12,97,82,58,30.28,30.17,9,0,10,0.01
2013-12-28,48,31,21,31,25,19,98,81,46,30.20,29.98,11,1,13,0.00
2013-12-29,39,33,27,39,32,26,100,96,88,29.99,29.44,13,0,15,0.85
2013-12-30,37,28,14,35,23,8,100,82,60,30.17,29.61,17,1,18,0.00
2013-12-31,27,19,12,23,14,9,93,78,60,30.19,29.99,8,0,10,0.00
2014-1-1,30,23,18,19,14,9,89,67,46,30.34,30.19,13,1,15,0.00
2014-1-2,22,12,3,19,8,-1,90,85,81,30.26,29.77,14,2,14,0.00